Flag for Australia

Past Weather in Perth, Western Australia, Australia — Yesterday and Last 2 Weeks

Currently: 66 °F. Clear. (Weather station: Belmont Perth Airport, Australia). See more current weather

Past Weather in Perth — Graph

°F

Perth Temperature Yesterday

Maximum temperature yesterday: 79 °F (at 1:30 pm)
Minimum temperature yesterday: 54 °F (at 5:00 am)
Average temperature yesterday: 69 °F

High & Low Weather Summary for the Past Weeks

 TemperatureHumidityPressure
High99 °F (Jan 19, 11:00 am)94% (Jan 24, 5:00 am)30.07 "Hg (Jan 24, 5:00 am)
Low54 °F (Jan 27, 5:00 am)12% (Jan 17, 5:00 pm)29.50 "Hg (Jan 23, 4:00 am)
Average77 °F45%29.84 "Hg
* Reported Jan 13 1:00 am — Jan 28 1:00 am, Perth. Weather by CustomWeather, © 2021

Note: Actual official high and low records may vary slightly from our data, if they occured in-between our weather recording intervals... More about our weather records

Perth Weather History for the Previous 24 Hours

Scroll right to see more
 ConditionsComfort  
Time TempWeatherWind HumidityBarometerVisibility
1:00 am
Thu, Jan 28
66 °FClear.13 mph43%29.92 "Hg10 mi
12:30 am66 °FClear.9 mph43%29.92 "Hg10 mi
12:00 am66 °FClear.10 mph40%29.92 "Hg10 mi
11:30 pm
Wed, Jan 27
68 °FClear.10 mph38%29.89 "Hg10 mi
10:30 pm68 °FClear.15 mph40%29.89 "Hg10 mi
10:00 pm68 °FClear.10 mph49%29.89 "Hg10 mi
9:30 pm70 °FClear.10 mph46%29.89 "Hg10 mi
9:00 pm70 °FClear.13 mph50%29.86 "Hg10 mi
8:30 pm72 °FClear.15 mph44%29.86 "Hg10 mi
8:00 pm72 °FClear.17 mph44%29.83 "Hg10 mi
7:30 pm72 °FClear.18 mph47%29.83 "Hg10 mi
7:00 pm73 °FSunny.20 mph44%29.83 "Hg10 mi
6:30 pm73 °FSunny.20 mph44%29.83 "Hg10 mi
6:00 pm75 °FPassing clouds.21 mph41%29.83 "HgN/A
5:30 pm77 °FPassing clouds.21 mph36%29.80 "HgN/A
5:00 pm77 °FPassing clouds.22 mph36%29.80 "HgN/A
4:30 pm77 °FPassing clouds.22 mph39%29.80 "HgN/A
4:00 pm79 °FPassing clouds.22 mph39%29.80 "HgN/A
3:30 pm79 °FPassing clouds.21 mph39%29.80 "HgN/A
3:00 pm79 °FPassing clouds.20 mph42%29.80 "HgN/A
2:30 pm79 °FSunny.18 mph42%29.80 "Hg10 mi
2:00 pm79 °FSunny.16 mph42%29.80 "Hg10 mi
1:30 pm79 °FPassing clouds.13 mph39%29.80 "HgN/A
1:00 pm77 °FSunny.13 mph44%29.83 "Hg10 mi
12:30 pm75 °FBroken clouds.16 mph47%29.83 "HgN/A
12:00 pm75 °FBroken clouds.15 mph47%29.83 "HgN/A
11:30 am75 °FPartly sunny.15 mph50%29.83 "HgN/A
11:00 am73 °FBroken clouds.15 mph53%29.83 "HgN/A
10:30 am73 °FPartly sunny.13 mph57%29.83 "HgN/A
10:00 am70 °FBroken clouds.14 mph64%29.83 "HgN/A
9:30 am72 °FPartly sunny.18 mph61%29.83 "HgN/A
9:00 am72 °FPartly sunny.12 mph57%29.83 "HgN/A
8:30 am72 °FPartly sunny.5 mph53%29.83 "HgN/A
8:00 am68 °FPassing clouds.No wind60%29.83 "HgN/A
7:30 am66 °FPassing clouds.6 mph60%29.83 "HgN/A
7:00 am63 °FPassing clouds.6 mph68%29.80 "HgN/A
6:30 am57 °FPassing clouds.5 mph88%29.80 "HgN/A
6:00 am54 °FPassing clouds.5 mph88%29.80 "HgN/A
5:30 am54 °FPassing clouds.No wind88%29.80 "HgN/A
5:00 am54 °FClear.3 mph88%29.80 "Hg10 mi
4:30 am55 °FClear.No wind88%29.80 "Hg10 mi
4:00 am57 °FPassing clouds.5 mph77%29.80 "HgN/A
3:30 am59 °FClear.6 mph77%29.77 "Hg10 mi
3:00 am63 °FClear.9 mph68%29.77 "Hg10 mi
2:30 am63 °FPassing clouds.9 mph68%29.77 "HgN/A
2:00 am63 °FPassing clouds.9 mph68%29.77 "HgN/A
Weather by CustomWeather, © 2021

See weather overview